D/T METAR WX W/SPE G/SPE TEMP DEWP FEEL
24/05/22 18:20 EGTC 241720Z 25007KT 220V290 9999 FEW021 SCT048 14/09 Q1008 8.1mph 14°C 9°C 14.8°C
24/05/22 17:20 EGTC 241620Z 26008KT 240V300 9999 VCSH SCT048CB 15/05 Q1007 VCSH 9.2mph 15°C 5°C 14.3°C
24/05/22 16:50 EGTC 241550Z 26010KT 230V300 9999 VCSH SCT048CB 14/06 Q1007 VCSH 11.5mph 14°C 6°C 13.6°C
24/05/22 16:20 EGTC 241520Z 28012G24KT 9999 -SHRA FEW011 SCT048 13/08 Q1007 -SHRA 13.8mph 27.6mph 13°C 8°C 13.4°C
24/05/22 15:50 EGTC 241450Z 28010KT 260V330 9999 FEW035 SCT044 15/05 Q1007 11.5mph 15°C 5°C 14.3°C
24/05/22 15:20 EGTC 241420Z 28014KT 9999 SCT042 16/05 Q1007 16.1mph 16°C 5°C 15.3°C
24/05/22 14:50 EGTC 241350Z 28011KT 240V310 9999 FEW042 16/07 Q1006 12.7mph 16°C 7°C 16.0°C
24/05/22 14:20 EGTC 241320Z 26014KT 9999 FEW036 16/07 Q1006 16.1mph 16°C 7°C 16.0°C
24/05/22 13:50 EGTC 241250Z 26013KT 9999 FEW032CB 15/08 Q1006 15.0mph 15°C 8°C 15.4°C
24/05/22 13:20 EGTC 241220Z 28017KT 9999 SHRA SCT034CB BKN043 12/08 Q1006 SHRA 19.6mph 12°C 8°C 12.4°C
24/05/22 12:50 EGTC 241150Z 25012KT 9999 FEW028 15/08 Q1005 RESHRA 13.8mph 15°C 8°C 15.4°C
24/05/22 12:20 EGTC 241120Z 24009KT 9999 VCSH FEW028CB SCT049 12/06 Q1005 RESHRA VCSH 10.4mph 12°C 6°C 11.6°C
24/05/22 11:20 EGTC 241020Z 29009KT 260V320 9999 SCT027 14/07 Q1005 10.4mph 14°C 7°C 14.0°C
24/05/22 10:50 EGTC 240950Z 29011KT 9999 SCT023 14/07 Q1005 12.7mph 14°C 7°C 14.0°C
24/05/22 09:50 EGTC 240850Z 26008KT 9999 SCT017 BKN022 12/08 Q1004 9.2mph 12°C 8°C 12.4°C
24/05/22 09:20 EGTC 240820Z 27010KT 240V300 9999 FEW013 BKN017 12/08 Q1004 11.5mph 12°C 8°C 12.4°C
24/05/22 08:50 EGTC 240750Z 26010KT 9999 SCT012 SCT046 11/09 Q1004 11.5mph 11°C 9°C 11.8°C
24/05/22 08:20 EGTC 240720Z 27011KT 9999 FEW010 BKN018 11/08 Q1004 12.7mph 11°C 8°C 11.4°C
24/05/22 07:50 EGTC 240650Z 27010KT 9999 FEW006 BKN008 OVC014 10/09 Q1003 11.5mph 10°C 9°C 10.8°C
24/05/22 07:20 EGTC 240620Z 26010KT 9999 -RADZ FEW006 SCT008 OVC030 10/09 Q1003 -RA -DZ 11.5mph 10°C 9°C 10.8°C
23/05/22 18:20 EGTC 231720Z 27008KT 9999 FEW047 15/09 Q1000 9.2mph 15°C 9°C 15.8°C
23/05/22 17:20 EGTC 231620Z 29008KT 9999 FEW042 17/08 Q0999 9.2mph 17°C 8°C 17.4°C
23/05/22 16:50 EGTC 231550Z 28009KT 250V320 9999 FEW040 17/08 Q1000 10.4mph 17°C 8°C 17.4°C
23/05/22 15:50 EGTC 231450Z 28006KT 230V350 9999 FEW037 18/08 Q1000 6.9mph 18°C 8°C 18.4°C
23/05/22 15:20 EGTC 231420Z 28009KT 240V330 9999 SCT038 17/08 Q1000 10.4mph 17°C 8°C 17.4°C
23/05/22 14:50 EGTC 231350Z 29008KT 9999 FEW045 17/08 Q1001 9.2mph 17°C 8°C 17.4°C
23/05/22 14:20 EGTC 231320Z 29010KT 9999 FEW040 16/07 Q1001 11.5mph 16°C 7°C 16.0°C
23/05/22 13:50 EGTC 231250Z 26011KT 9999 SCT040 16/07 Q1001 12.7mph 16°C 7°C 16.0°C
23/05/22 12:50 EGTC 231150Z 25006KT 220V290 9999 SCT031 16/08 Q1001 6.9mph 16°C 8°C 16.4°C
23/05/22 12:20 EGTC 231120Z 27008KT 250V320 9999 SCT030 16/08 Q1001 9.2mph 16°C 8°C 16.4°C
23/05/22 11:20 EGTC 231020Z 29006KT 250V330 9999 SCT029 BKN046 16/09 Q1001 6.9mph 16°C 9°C 16.8°C
23/05/22 10:50 EGTC 230950Z 31007KT 270V340 9999 FEW029 BKN044 16/09 Q1002 8.1mph 16°C 9°C 16.8°C
23/05/22 10:20 EGTC 230920Z 31007KT 270V340 9999 FEW018 BKN044 15/10 Q1002 8.1mph 15°C 10°C 16.3°C
23/05/22 09:50 EGTC 230850Z 30007KT 270V340 9999 FEW017 SCT041 15/11 Q1002 8.1mph 15°C 11°C 16.8°C
23/05/22 09:20 EGTC 230820Z 27007KT 250V310 9999 FEW027 OVC042 14/10 Q1003 8.1mph 14°C 10°C 15.3°C
23/05/22 08:50 EGTC 230750Z 28006KT 9999 SCT025 BKN040 OVC049 13/11 Q1003 6.9mph 13°C 11°C 14.8°C
23/05/22 08:20 EGTC 230720Z 27007KT 9999 8000S VCSH BKN028 13/11 Q1003 VCSH 8.1mph 13°C 11°C 14.8°C
23/05/22 07:50 EGTC 230650Z 28006KT 9999 BKN028 13/10 Q1003 6.9mph 13°C 10°C 14.3°C
23/05/22 07:20 EGTC 230620Z 28006KT 9999 FEW030 SCT035 13/10 Q1004 6.9mph 13°C 10°C 14.3°C
22/05/22 17:50 EGTC 221650Z 20007KT CAVOK 20/10 Q1009 8.1mph 20°C 10°C 21.3°C
22/05/22 17:20 EGTC 221620Z 22009KT 9999 FEW049 20/09 Q1009 10.4mph 20°C 9°C 20.8°C
22/05/22 16:50 EGTC 221550Z 22009KT 9999 FEW049 21/10 Q1010 10.4mph 21°C 10°C 22.3°C
22/05/22 16:20 EGTC 221520Z 19007KT 150V210 9999 FEW049 21/09 Q1010 8.1mph 21°C 9°C 21.8°C
22/05/22 15:50 EGTC 221450Z 21007KT 180V270 9999 FEW049 21/10 Q1010 8.1mph 21°C 10°C 22.3°C
22/05/22 14:50 EGTC 221350Z 23008KT 200V270 CAVOK 21/10 Q1011 9.2mph 21°C 10°C 22.3°C
22/05/22 14:20 EGTC 221320Z 22008KT 160V270 9999 FEW045 21/10 Q1011 9.2mph 21°C 10°C 22.3°C
22/05/22 13:50 EGTC 221250Z 21010KT 180V240 CAVOK 20/09 Q1012 11.5mph 20°C 9°C 20.8°C
22/05/22 13:20 EGTC 221220Z 22009KT 9999 FEW042 20/10 Q1012 10.4mph 20°C 10°C 21.3°C
22/05/22 12:50 EGTC 221150Z 21009KT 160V250 9999 FEW044 20/10 Q1013 10.4mph 20°C 10°C 21.3°C
22/05/22 12:20 EGTC 221120Z 22011KT 9999 SCT042 20/09 Q1013 12.7mph 20°C 9°C 20.8°C
22/05/22 11:50 EGTC 221050Z 21010KT 180V240 9999 FEW040 19/09 Q1013 11.5mph 19°C 9°C 19.8°C
22/05/22 11:20 EGTC 221020Z 22011KT 9999 SCT041 19/10 Q1014 12.7mph 19°C 10°C 20.3°C
22/05/22 10:50 EGTC 220950Z 21011KT 180V240 CAVOK 18/09 Q1014 12.7mph 18°C 9°C 18.8°C
22/05/22 10:20 EGTC 220920Z 20009KT CAVOK 17/09 Q1014 10.4mph 17°C 9°C 17.8°C
22/05/22 09:50 EGTC 220850Z 23009KT CAVOK 17/09 Q1015 10.4mph 17°C 9°C 17.8°C
22/05/22 08:50 EGTC 220750Z 20005KT CAVOK 15/09 Q1015 5.8mph 15°C 9°C 15.8°C
22/05/22 08:20 EGTC 220720Z 21007KT CAVOK 14/08 Q1015 8.1mph 14°C 8°C 14.4°C
21/05/22 17:50 EGTC 211650Z 24010KT 9999 FEW044 18/07 Q1019 11.5mph 18°C 7°C 18.0°C
21/05/22 17:20 EGTC 211620Z 24010KT 210V290 9999 FEW044 18/08 Q1019 11.5mph 18°C 8°C 18.4°C
21/05/22 16:50 EGTC 211550Z 26010KT CAVOK 17/08 Q1020 11.5mph 17°C 8°C 17.4°C
21/05/22 16:20 EGTC 211520Z 25010KT 9999 FEW043 18/09 Q1020 11.5mph 18°C 9°C 18.8°C
21/05/22 15:20 EGTC 211420Z 27008KT 150V300 9999 BKN042 18/08 Q1020 9.2mph 18°C 8°C 18.4°C
21/05/22 14:50 EGTC 211350Z 23011KT 200V270 9999 SCT039 18/08 Q1020 12.7mph 18°C 8°C 18.4°C
21/05/22 14:20 EGTC 211320Z 28010KT 260V320 9999 SCT040 17/08 Q1020 11.5mph 17°C 8°C 17.4°C
21/05/22 13:50 EGTC 211250Z 24013KT 210V270 9999 FEW038 17/07 Q1020 15.0mph 17°C 7°C 17.0°C
21/05/22 13:20 EGTC 211220Z 26010KT 9999 SCT031 17/08 Q1020 11.5mph 17°C 8°C 17.4°C
21/05/22 12:50 EGTC 211150Z 26010KT 9999 SCT030 16/09 Q1021 11.5mph 16°C 9°C 16.8°C
21/05/22 12:20 EGTC 211120Z 25012KT 9999 FEW026 15/08 Q1021 13.8mph 15°C 8°C 15.4°C
21/05/22 11:50 EGTC 211050Z 24012KT 9999 FEW024 15/09 Q1021 13.8mph 15°C 9°C 15.8°C
21/05/22 10:50 EGTC 210950Z 23008KT 9999 FEW015 14/10 Q1021 9.2mph 14°C 10°C 15.3°C
21/05/22 09:50 EGTC 210850Z 25008KT 9999 FEW013 14/10 Q1021 9.2mph 14°C 10°C 15.3°C
21/05/22 09:20 EGTC 210820Z 24010KT CAVOK 13/10 Q1021 11.5mph 13°C 10°C 14.3°C
21/05/22 08:50 EGTC 210750Z 25011KT CAVOK 12/09 Q1021 12.7mph 12°C 9°C 12.8°C
20/05/22 18:20 EGTC 201720Z 22019KT 9999 FEW032 BKN039 15/10 Q1016 21.9mph 15°C 10°C 16.3°C
20/05/22 17:50 EGTC 201650Z 23015KT 9999 SCT039 BKN049 17/09 Q1015 17.3mph 17°C 9°C 17.8°C
20/05/22 17:20 EGTC 201620Z 22016KT 9999 SCT039 16/09 Q1016 18.4mph 16°C 9°C 16.8°C
20/05/22 16:20 EGTC 201520Z 23018KT 9999 SCT038 16/07 Q1016 20.7mph 16°C 7°C 16.0°C
20/05/22 15:50 EGTC 201450Z 24015KT 9999 SCT034 16/08 Q1016 17.3mph 16°C 8°C 16.4°C
20/05/22 15:20 EGTC 201420Z 24013KT 210V270 9999 BKN028 16/09 Q1016 15.0mph 16°C 9°C 16.8°C
20/05/22 14:50 EGTC 201350Z 24014KT 9999 BKN027 16/09 Q1016 16.1mph 16°C 9°C 16.8°C
20/05/22 13:50 EGTC 201250Z 24009KT 9999 SCT019 14/09 Q1017 10.4mph 14°C 9°C 14.8°C
20/05/22 12:50 EGTC 201150Z 22007KT 9999 -RA FEW014 12/10 Q1017 -RA 8.1mph 12°C 10°C 13.3°C
20/05/22 12:20 EGTC 201120Z 22009KT 9000 -RA FEW045 12/09 Q1017 -RA 10.4mph 12°C 9°C 12.8°C
20/05/22 11:50 EGTC 201050Z 23010KT 9000 -RA FEW039 11/09 Q1017 -RA 11.5mph 11°C 9°C 11.8°C
20/05/22 11:20 EGTC 201020Z 24009KT 9000 -RA FEW043 12/09 Q1017 -RA 10.4mph 12°C 9°C 12.8°C
20/05/22 10:50 EGTC 200950Z 25009KT 9000 -RA FEW019 12/09 Q1018 -RA 10.4mph 12°C 9°C 12.8°C
20/05/22 10:20 EGTC 200920Z 25009KT 9000 -RA FEW031 12/09 Q1018 -RA 10.4mph 12°C 9°C 12.8°C
20/05/22 09:50 EGTC 200850Z 26009KT 9999 FEW034 13/08 Q1018 10.4mph 13°C 8°C 13.4°C
20/05/22 09:20 EGTC 200820Z 25009KT 9999 FEW033 13/09 Q1018 10.4mph 13°C 9°C 13.8°C
20/05/22 08:50 EGTC 200750Z 24007KT CAVOK 13/09 Q1018 8.1mph 13°C 9°C 13.8°C
20/05/22 08:20 EGTC 200720Z 23008KT CAVOK 13/09 Q1019 9.2mph 13°C 9°C 13.8°C
19/05/22 16:50 EGTC 191550Z 23010KT 9999 FEW048 19/08 Q1019 11.5mph 19°C 8°C 19.4°C
19/05/22 16:20 EGTC 191520Z 26010KT 220V310 9999 FEW048 19/08 Q1019 11.5mph 19°C 8°C 19.4°C
19/05/22 15:20 EGTC 191420Z 29009KT 260V330 9999 SCT041 18/07 Q1019 10.4mph 18°C 7°C 18.0°C
19/05/22 14:50 EGTC 191350Z 28009KT 240V320 9999 SCT040 19/09 Q1019 10.4mph 19°C 9°C 19.8°C
19/05/22 14:20 EGTC 191320Z 28009KT 240V320 9999 SCT040 18/09 Q1019 10.4mph 18°C 9°C 18.8°C